Weather observations for the past three days for
Ontario Municipal Airport
Metric (Imperial)
Date Time (mdt) Wind (kph) Vis. (km) Weather Sky Cond. Temperature (ºC) Relative Humidity Wind Chill (°C) Heat Index (°C) Pressure Precipitation (cm)
Air Dwpt 6 hour altimeter (cm) sea level (mb) 1 hr 3 hr 6 hr
Max. Min.
10 07:53 Calm 16.09 Fair CLR 8.3 2.8 69% 76.43 1018.5
10 06:53 W 7 16.09 Fair CLR 6.7 1.7 71% 6 76.4 1018.2
10 05:53 SW 9 16.09 Fair CLR 7.2 2.2 13.9 7.2 71% 6 76.4 1018.1
10 04:53 W 9 16.09 Fair CLR 7.8 2.2 68% 6 76.38 1017.8
10 03:53 W 6 16.09 Fair CLR 8.3 2.8 69% 76.35 1017.6
10 02:53 W 6 16.09 Fair CLR 8.3 3.3 71% 76.35 1017.5
10 01:53 W 7 16.09 Fair CLR 10.6 3.3 61% 76.38 1017.5
10 00:53 W 6 16.09 Fair CLR 11.1 3.9 61% 76.35 1017.4
09 23:53 NE 7 16.09 Fair CLR 13.9 3.9 25.6 13.9 51% 76.35 1017.4
09 22:53 Calm 16.09 Fair CLR 15.6 3.3 44% 76.33 1017.0
09 21:53 Calm 16.09 Fair CLR 17.8 3.3 38% 76.3 1016.5
09 20:53 E 6 16.09 Fair CLR 22.2 1.1 25% 76.25 1015.7
09 19:53 E 11 16.09 Fair CLR 25 -0.6 18% 25 76.25 1015.6
09 18:53 Calm 16.09 Fair CLR 25.6 -1.1 17% 25 76.28 1016.2
09 17:53 S 7 16.09 Fair CLR 25.6 -1.1 26.1 20.6 17% 25 76.3 1016.5
09 16:53 S 11 16.09 Fair CLR 25.6 -1.7 16% 25 76.35 1016.9
09 15:53 Vrbl 9 16.09 Fair CLR 25 -1.7 17% 25 76.4 1017.8
09 14:53 NW 9 16.09 Fair CLR 24.4 0 20% 25 76.45 1018.4
09 13:53 Calm 16.09 Fair CLR 23.3 0 21% 76.5 1019.2
09 12:53 Calm 16.09 Fair CLR 21.7 -0.6 23% 76.56 1019.8
09 11:53 NW 15 16.09 Fair CLR 20.6 -0.6 20.6 10 24% 76.58 1020.2
09 10:53 NW 22 16.09 Fair CLR 20 1.7 30% 76.61 1020.5
09 09:53 NW 24 16.09 Fair CLR 17.8 2.8 37% 76.61 1020.5
09 08:53 W 13 G 33 16.09 Fair CLR 15 3.9 48% 76.58 1020.4
09 07:53 W 17 16.09 Fair CLR 12.2 2.8 53% 76.58 1020.1
09 06:53 Vrbl 9 16.09 Fair CLR 11.1 2.2 55% 76.56 1019.7
09 05:53 NW 22 16.09 Fair CLR 12.2 1.7 17.8 12.2 49% 76.5 1019.1
09 04:53 NW 15 16.09 Fair CLR 13.3 1.7 46% 76.5 1019.0
09 03:53 NW 22 16.09 Fair CLR 13.3 1.7 46% 76.48 1018.6
09 02:53 Calm 16.09 Fair CLR 15.6 1.1 38% 76.45 1018.4
09 01:53 Vrbl 7 16.09 Fair CLR 15.6 0.6 36% 76.43 1018.0
09 00:53 NW 30 16.09 Fair CLR 16.1 0 34% 76.35 1016.9
08 23:53 N 33 G 46 16.09 Fair and Breezy CLR 17.2 -1.7 27.2 17.2 28% 76.3 1016.2
08 22:53 N 31 G 46 16.09 Fair CLR 18.9 -2.2 24% 76.23 1015.2
08 21:53 N 30 16.09 Fair CLR 20 1.7 30% 76.15 1014.5
08 20:53 N 11 16.09 Fair CLR 20.6 0.6 26% 76.07 1013.6
08 19:53 N 13 16.09 Fair CLR 25 0.6 20% 25 76.02 1012.9
08 18:53 N 13 G 30 16.09 Fair CLR 26.7 0 17% 26 76.02 1012.9
08 17:53 NE 7 16.09 Fair CLR 26.7 0.6 27.2 22.2 18% 26 76.05 1012.9
08 16:53 Vrbl 6 16.09 Fair CLR 26.7 -1.1 16% 26 76.05 1012.9
08 15:53 Vrbl 9 16.09 Fair CLR 26.7 -1.1 16% 26 76.1 1013.6
08 14:53 SW 13 16.09 Fair CLR 25.6 -1.1 17% 25 76.15 1013.9
08 13:53 Calm 16.09 Fair CLR 24.4 -2.2 17% 24 76.17 1014.5
08 12:53 Calm 16.09 Fair CLR 23.3 -3.9 16% 76.23 1015.0
08 11:53 S 7 16.09 Fair CLR 22.2 0 22.2 8.3 23% 76.25 1015.5
08 10:53 Calm 16.09 Fair CLR 20.6 0.6 26% 76.25 1015.8
08 09:53 W 9 16.09 Fair CLR 18.3 1.7 33% 76.28 1016.1
08 08:53 W 9 16.09 Fair CLR 15 3.3 46% 76.28 1016.0
08 07:53 SW 13 16.09 Fair CLR 10.6 2.8 59% 76.25 1015.8
08 06:53 W 6 16.09 Fair CLR 8.9 1.7 61% 76.2 1015.3
08 05:53 W 13 16.09 Fair CLR 10 1.7 17.8 10 57% 8 76.15 1014.5
08 04:53 W 13 16.09 Fair CLR 11.1 2.2 55% 76.15 1014.3
08 03:53 SW 9 16.09 Fair CLR 11.7 2.8 55% 76.12 1013.9
08 02:53 W 17 G 35 16.09 Fair CLR 16.7 0.6 34% 76.1 1013.2
08 01:53 S 7 16.09 Fair CLR 15.6 1.7 39% 76.07 0.0
08 00:53 NW 22 16.09 Fair CLR 17.2 1.7 35% 76.05 1012.6
07 23:53 NW 15 16.09 Fair CLR 17.8 2.2 26.1 17.2 35% 76.02 1012.6
07 22:53 Calm 16.09 Fair CLR 17.8 3.9 40% 76.02 1012.6
07 21:53 NW 7 16.09 Fair CLR 17.2 5.6 47% 76 1012.1
07 20:53 W 6 16.09 Fair CLR 21.7 5.6 35% 75.95 1011.3
07 19:53 N 7 16.09 Fair CLR 24.4 3.3 25% 25 75.9 1010.8
07 18:53 NE 11 16.09 Fair CLR 26.1 1.7 20% 26 75.9 1010.9
07 17:53 Vrbl 11 16.09 Fair CLR 26.1 2.2 21% 26 75.92 1011.1
07 16:53 N 15 16.09 Fair CLR 26.1 2.8 22% 26 75.95 1011.4
07 15:53 NE 7 16.09 Fair CLR 26.1 3.3 23% 26 76 1012.2
07 14:53 Vrbl 7 16.09 Fair CLR 25.6 3.3 24% 25 76.07 1013.1
07 13:53 Calm 0.00 Fair CLR 0 0 0% 76.1 0.0
07 12:53 NW 13 16.09 Fair CLR 23.9 2.8 25% 25 76.15 1014.3
07 11:53 NE 9 16.09 Fair CLR 22.2 2.2 22.2 12.2 27% 76.17 1014.7
07 10:53 Vrbl 7 16.09 Fair CLR 21.1 3.9 32% 76.2 1015.0
07 09:53 W 9 16.09 Fair CLR 20 3.3 33% 76.23 1015.2
07 08:53 SW 13 16.09 Fair CLR 17.8 5 43% 76.23 1015.4
Date Time (mdt) Wind (kph) Vis. (km) Weather Sky Cond. Air Dwpt Max. Min. Relative Humidity Wind Chill (°C) Heat Index (°C) altimeter (cm) sea level (mb) 1 hr 3 hr 6 hr
6 hour
Temperature (ºC) Pressure Precipitation (cm)